Time;durP1;ratioP1;P1;durP2;ratioP2;P2;SDS_P1;SDS_P2;PMS_P1;PMS_P2;Temp;Humidity;BMP_temperature;BMP_pressure;BME280_temperature;BME280_humidity;BME280_pressure;Samples;Min_cycle;Max_cycle;Signal;HPM_P1;HPM_P2
2021/01/04 00:01:32;;;;;;;115.67;14.57;;;-0.40;96.30;;;;;;4953556;28;20887;-74
2021/01/04 00:04:03;;;;;;;183.63;15.87;;;-0.40;96.30;;;;;;4953640;28;20407;-74
2021/01/04 00:07:06;;;;;;;72.07;14.60;;;-0.40;96.30;;;;;;4953535;28;20419;-74
2021/01/04 00:09:39;;;;;;;218.53;16.30;;;-0.40;96.30;;;;;;4957166;28;20433;-74
2021/01/04 00:12:12;;;;;;;212.93;15.97;;;-0.40;96.30;;;;;;4957216;29;20469;-74
2021/01/04 00:14:52;;;;;;;315.57;17.83;;;-0.40;96.30;;;;;;4957228;28;20796;-74
2021/01/04 00:17:36;;;;;;;273.40;14.90;;;-0.40;96.30;;;;;;4955967;29;20429;-74
2021/01/04 00:20:30;;;;;;;373.63;19.10;;;-0.40;96.30;;;;;;4955641;28;20462;-74
2021/01/04 00:23:21;;;;;;;297.07;16.73;;;-0.40;96.30;;;;;;4957132;28;20421;-74
2021/01/04 00:25:54;;;;;;;412.47;18.77;;;-0.40;96.30;;;;;;4956789;28;20982;-74
2021/01/04 00:28:22;;;;;;;307.43;17.50;;;-0.40;96.30;;;;;;4955746;29;20751;-74
2021/01/04 00:30:57;;;;;;;269.83;16.57;;;-0.40;96.30;;;;;;4955626;28;20442;-74
2021/01/04 00:33:36;;;;;;;147.37;15.50;;;-0.50;96.30;;;;;;4955664;29;20424;-74
2021/01/04 00:36:10;;;;;;;116.33;16.73;;;-0.50;96.30;;;;;;4956629;29;20399;-74
2021/01/04 00:39:07;;;;;;;167.40;17.27;;;-0.50;96.30;;;;;;4956814;28;20450;-74
2021/01/04 00:41:44;;;;;;;120.60;16.30;;;-0.50;96.30;;;;;;4956783;28;20477;-74
2021/01/04 00:44:18;;;;;;;121.50;15.93;;;-0.40;96.30;;;;;;4956558;29;20394;-74
2021/01/04 00:46:49;;;;;;;74.23;14.60;;;-0.50;96.30;;;;;;4956699;28;20458;-74
2021/01/04 00:49:28;;;;;;;93.17;15.77;;;-0.40;96.30;;;;;;4956602;28;20403;-74
2021/01/04 00:52:19;;;;;;;116.17;16.83;;;-0.40;96.30;;;;;;4955324;29;20505;-75
2021/01/04 00:55:06;;;;;;;96.23;15.90;;;-0.40;96.30;;;;;;4956326;28;20506;-74
2021/01/04 00:58:09;;;;;;;138.83;16.80;;;-0.50;96.30;;;;;;4956509;28;20405;-74
2021/01/04 05:00:33;;;;;;;202.20;12.20;;;-0.60;96.30;;;;;;6065454;23;20503;31
2021/01/04 05:03:24;;;;;;;262.03;12.70;;;-0.60;96.30;;;;;;4897505;29;20441;-74
2021/01/04 05:06:19;;;;;;;198.63;11.97;;;-0.60;96.30;;;;;;4881709;29;20413;-74
2021/01/04 05:08:56;;;;;;;69.53;10.17;;;-0.70;96.30;;;;;;4899270;29;20933;-74
2021/01/04 05:11:28;;;;;;;95.80;10.60;;;-0.70;96.30;;;;;;4897098;29;20824;-74
2021/01/04 05:13:55;;;;;;;95.87;10.83;;;-0.70;96.30;;;;;;4899574;29;20389;-74
2021/01/04 05:16:50;;;;;;;103.53;10.53;;;-0.60;96.30;;;;;;4881818;29;20489;-75
2021/01/04 05:19:51;;;;;;;25.23;9.10;;;-0.60;96.30;;;;;;4878110;29;20518;-75
2021/01/04 05:22:53;;;;;;;118.40;10.10;;;-0.60;96.30;;;;;;4882246;29;20444;-75
2021/01/04 05:25:56;;;;;;;62.10;9.60;;;-0.70;96.30;;;;;;4898478;29;20835;-74
2021/01/04 05:28:53;;;;;;;115.00;10.63;;;-0.70;96.30;;;;;;4882017;29;20434;-75
2021/01/04 05:31:43;;;;;;;45.13;9.63;;;-0.70;96.30;;;;;;4895407;29;20434;-75
2021/01/04 05:34:35;;;;;;;30.50;9.77;;;-0.70;96.30;;;;;;4898097;29;20426;-75
2021/01/04 05:37:43;;;;;;;14.20;9.20;;;-0.70;96.30;;;;;;4898605;29;20921;-75
2021/01/04 05:40:26;;;;;;;145.30;12.07;;;-0.70;96.30;;;;;;4893058;29;21011;-73
2021/01/04 05:43:12;;;;;;;36.23;9.67;;;-0.70;96.30;;;;;;4898350;29;20418;-74
2021/01/04 05:45:55;;;;;;;70.87;10.27;;;-0.70;96.30;;;;;;4898056;29;20409;-75
2021/01/04 05:48:45;;;;;;;31.50;9.40;;;-0.70;96.30;;;;;;4881821;29;20405;-75
2021/01/04 05:51:22;;;;;;;38.57;11.23;;;-0.70;96.30;;;;;;4898560;29;20425;-74
2021/01/04 05:53:48;;;;;;;98.03;10.60;;;-0.70;96.30;;;;;;4881509;29;20937;-75
2021/01/04 05:56:25;;;;;;;67.77;10.37;;;-0.70;96.30;;;;;;4897861;29;20406;-74
2021/01/04 05:58:53;;;;;;;144.77;11.47;;;-0.70;96.30;;;;;;4898100;29;20211;-74
2021/01/04 06:01:24;;;;;;;55.07;11.60;;;-0.70;96.30;;;;;;4896982;29;20497;-73
2021/01/04 06:04:10;;;;;;;49.17;10.87;;;-0.70;96.30;;;;;;4897017;29;20429;-74
2021/01/04 06:07:02;;;;;;;154.83;12.70;;;-0.70;96.30;;;;;;4897350;29;20417;-74
2021/01/04 06:09:28;;;;;;;240.13;12.50;;;-0.80;96.30;;;;;;4898165;29;20409;-74
2021/01/04 06:12:01;;;;;;;192.90;12.30;;;-0.80;96.30;;;;;;4897969;29;20476;-74
2021/01/04 06:14:30;;;;;;;271.77;13.80;;;-0.80;96.30;;;;;;4896676;29;20429;-74
2021/01/04 06:17:01;;;;;;;164.10;12.57;;;-0.70;96.30;;;;;;4897753;29;20433;-74
2021/01/04 06:19:30;;;;;;;310.50;13.57;;;-0.80;96.30;;;;;;4897888;29;20456;-75
2021/01/04 06:21:58;;;;;;;345.80;15.93;;;-0.80;96.30;;;;;;4881024;29;20445;-73
2021/01/04 06:24:28;;;;;;;251.87;13.27;;;-0.80;96.30;;;;;;4897340;29;20504;-74
2021/01/04 06:27:00;;;;;;;204.80;12.87;;;-0.70;96.30;;;;;;4896650;29;20456;-74
2021/01/04 06:29:42;;;;;;;194.10;13.13;;;-0.80;96.30;;;;;;4897831;29;20406;-74
2021/01/04 06:32:21;;;;;;;302.97;14.40;;;-0.70;96.30;;;;;;4897634;29;20449;-74
2021/01/04 06:35:19;;;;;;;276.30;13.07;;;-0.80;96.30;;;;;;4897153;29;20413;-74
2021/01/04 06:37:45;;;;;;;65.27;11.70;;;-0.80;96.30;;;;;;4880800;29;20457;-75
2021/01/04 06:40:44;;;;;;;139.10;11.63;;;-0.80;96.30;;;;;;4897458;29;20871;-74
2021/01/04 06:43:12;;;;;;;174.87;11.30;;;-0.80;96.30;;;;;;4897574;29;20503;-74
2021/01/04 06:46:04;;;;;;;376.87;13.00;;;-0.80;96.30;;;;;;4880490;29;20801;-74
2021/01/04 06:48:41;;;;;;;257.57;12.77;;;-0.80;96.30;;;;;;4868268;29;20569;-74
2021/01/04 06:51:36;;;;;;;249.90;11.43;;;-0.70;96.30;;;;;;4897389;29;20441;-74
2021/01/04 06:54:08;;;;;;;113.10;10.70;;;-0.70;96.30;;;;;;4880641;29;20916;-74
2021/01/04 06:56:55;;;;;;;74.13;9.57;;;-0.80;96.30;;;;;;4897255;29;20413;-74
2021/01/04 06:59:47;;;;;;;43.00;9.30;;;-0.70;96.30;;;;;;4880362;29;20464;-76
2021/01/04 07:02:27;;;;;;;26.87;9.20;;;-0.80;96.30;;;;;;4897220;29;20469;-74
2021/01/04 07:05:09;;;;;;;20.93;9.60;;;-0.80;96.30;;;;;;4875350;29;20472;-75
2021/01/04 07:08:12;;;;;;;41.70;9.60;;;-0.80;96.30;;;;;;4886442;29;20422;-76
2021/01/04 07:10:51;;;;;;;21.27;9.50;;;-0.80;96.30;;;;;;4885096;29;20436;-75
2021/01/04 07:13:53;;;;;;;41.47;10.77;;;-0.80;96.30;;;;;;4878788;29;20425;-75
2021/01/04 07:16:44;;;;;;;45.10;10.73;;;-0.80;96.30;;;;;;4861087;29;20773;-75
2021/01/04 07:19:19;;;;;;;57.27;9.77;;;-0.80;96.30;;;;;;4878269;29;20501;-75
2021/01/04 07:22:10;;;;;;;41.37;8.97;;;-0.80;96.30;;;;;;4861709;29;20430;-75
2021/01/04 07:24:46;;;;;;;74.10;11.07;;;-0.80;96.30;;;;;;4879225;29;20406;-75
2021/01/04 07:27:51;;;;;;;85.77;10.00;;;-0.80;96.30;;;;;;4889798;29;20425;-76
2021/01/04 07:30:28;;;;;;;160.37;11.17;;;-0.80;96.30;;;;;;4892562;29;20413;-76
2021/01/04 07:32:57;;;;;;;230.50;13.80;;;-0.70;96.30;;;;;;4897016;29;20420;-75
2021/01/04 07:35:37;;;;;;;161.73;10.80;;;-0.80;96.30;;;;;;4896768;29;20504;-75
2021/01/04 07:38:20;;;;;;;316.67;12.93;;;-0.80;96.30;;;;;;4878178;29;20418;-76
2021/01/04 07:41:18;;;;;;;162.70;12.17;;;-0.70;96.30;;;;;;4861355;29;20505;-75
2021/01/04 07:44:14;;;;;;;211.40;11.50;;;-0.70;96.30;;;;;;4861536;29;20497;-76
2021/01/04 07:47:11;;;;;;;193.93;10.63;;;-0.70;96.30;;;;;;4875219;29;20801;-75
2021/01/04 07:50:02;;;;;;;212.13;10.67;;;-0.70;96.30;;;;;;4894448;29;20444;-75
2021/01/04 07:52:49;;;;;;;178.87;12.10;;;-0.70;96.30;;;;;;4873744;29;20512;-75
2021/01/04 07:56:01;;;;;;;163.50;11.90;;;-0.70;96.30;;;;;;4885962;29;20426;-76
2021/01/04 07:59:03;;;;;;;184.23;10.70;;;-0.60;96.30;;;;;;4889760;29;20429;-75
2021/01/04 08:02:12;;;;;;;248.13;12.50;;;-0.60;96.30;;;;;;4889122;29;20481;-76
2021/01/04 08:05:04;;;;;;;115.10;10.30;;;-0.60;96.30;;;;;;4892302;29;20410;-75
2021/01/04 08:07:52;;;;;;;176.17;11.70;;;-0.60;96.30;;;;;;4889262;29;20402;-75
2021/01/04 08:10:39;;;;;;;121.93;9.00;;;-0.50;96.30;;;;;;4884606;29;20491;-75
2021/01/04 08:13:35;;;;;;;209.77;12.20;;;-0.60;96.30;;;;;;4888724;29;20410;-75
2021/01/04 08:16:05;;;;;;;216.20;10.97;;;-0.60;96.30;;;;;;4891172;29;20413;-75
2021/01/04 08:18:32;;;;;;;137.30;11.30;;;-0.50;96.30;;;;;;4891238;29;20413;-76
2021/01/04 08:21:25;;;;;;;131.53;11.30;;;-0.50;96.30;;;;;;4878448;29;20472;-74
2021/01/04 08:24:04;;;;;;;157.63;10.33;;;-0.50;96.30;;;;;;4885554;29;20395;-75
2021/01/04 08:27:20;;;;;;;307.90;12.40;;;-0.50;96.30;;;;;;4886203;29;20409;-76
2021/01/04 08:30:01;;;;;;;65.37;9.00;;;-0.50;96.30;;;;;;4884103;29;20441;-75
2021/01/04 08:32:47;;;;;;;122.17;10.97;;;-0.40;96.30;;;;;;4900007;29;20884;-75
2021/01/04 08:35:27;;;;;;;210.27;11.17;;;-0.40;96.30;;;;;;4881795;29;20848;-75
2021/01/04 08:37:53;;;;;;;125.33;11.00;;;-0.40;96.30;;;;;;4891132;29;20414;-75
2021/01/04 08:40:24;;;;;;;163.00;11.20;;;-0.30;96.30;;;;;;4889207;29;20480;-75
2021/01/04 08:43:00;;;;;;;156.37;11.40;;;-0.30;96.30;;;;;;4894649;29;20184;-74
2021/01/04 08:45:32;;;;;;;113.83;11.00;;;-0.30;96.30;;;;;;4890993;29;20990;-76
2021/01/04 08:47:58;;;;;;;142.63;10.90;;;-0.30;96.30;;;;;;4891709;29;20854;-76
2021/01/04 08:50:23;;;;;;;119.93;10.90;;;-0.30;96.30;;;;;;4896636;29;20426;-76
2021/01/04 08:52:56;;;;;;;175.53;11.90;;;-0.30;96.30;;;;;;4894674;29;20728;-74
2021/01/04 08:55:30;;;;;;;204.77;11.53;;;-0.30;96.30;;;;;;4894307;29;20244;-76
2021/01/04 08:57:59;;;;;;;250.50;12.43;;;-0.40;96.30;;;;;;4891040;29;20420;-76
2021/01/04 09:00:27;;;;;;;329.83;13.20;;;-0.30;96.30;;;;;;4892216;29;20565;-75
2021/01/04 09:02:54;;;;;;;200.37;11.60;;;-0.40;96.30;;;;;;4891261;29;20423;-75
2021/01/04 09:05:38;;;;;;;224.07;11.60;;;-0.40;96.30;;;;;;4892376;29;20465;-76
2021/01/04 09:08:06;;;;;;;251.57;13.47;;;-0.30;96.30;;;;;;4891069;29;20512;-76
2021/01/04 09:10:49;;;;;;;234.37;13.70;;;-0.40;96.30;;;;;;4883252;29;20439;-76
2021/01/04 09:13:35;;;;;;;229.13;12.37;;;-0.30;96.30;;;;;;4895594;29;20421;-77
2021/01/04 09:16:29;;;;;;;375.37;14.17;;;-0.30;96.30;;;;;;4876560;29;20801;-75
2021/01/04 09:19:26;;;;;;;184.50;12.53;;;-0.30;96.30;;;;;;4892491;29;20466;-75
2021/01/04 09:22:05;;;;;;;173.57;11.27;;;-0.30;96.30;;;;;;4886880;29;20488;-75
2021/01/04 09:24:35;;;;;;;135.63;11.83;;;-0.30;96.30;;;;;;4881825;29;20398;-75
2021/01/04 09:27:17;;;;;;;265.23;13.63;;;-0.30;96.30;;;;;;4898877;29;20416;-75
2021/01/04 09:29:52;;;;;;;166.57;13.20;;;-0.30;96.30;;;;;;4898928;29;20410;-76
2021/01/04 09:32:26;;;;;;;132.70;12.43;;;-0.30;96.30;;;;;;4898666;29;20455;-76
2021/01/04 09:34:51;;;;;;;122.33;10.90;;;-0.30;96.30;;;;;;4898592;29;20406;-76
2021/01/04 09:37:23;;;;;;;74.47;10.40;;;-0.20;96.30;;;;;;4898580;29;20948;-75
2021/01/04 09:39:53;;;;;;;87.67;11.63;;;-0.20;96.30;;;;;;4886437;29;20277;-76
2021/01/04 09:42:24;;;;;;;72.37;11.83;;;-0.10;96.30;;;;;;4879940;29;21014;-77
2021/01/04 09:44:50;;;;;;;59.67;11.37;;;-0.20;96.30;;;;;;4879818;29;20419;-76
2021/01/04 09:47:28;;;;;;;160.67;12.83;;;-0.10;96.30;;;;;;4863171;29;20425;-75
2021/01/04 09:50:00;;;;;;;101.90;10.97;;;-0.20;96.30;;;;;;4863052;29;20235;-75
2021/01/04 09:52:38;;;;;;;76.53;11.80;;;-0.20;96.30;;;;;;4879666;29;20434;-75
2021/01/04 09:55:09;;;;;;;101.07;10.77;;;-0.20;96.30;;;;;;4862922;29;20425;-75
2021/01/04 09:57:40;;;;;;;177.83;11.93;;;-0.20;96.30;;;;;;4896359;29;20428;-75
2021/01/04 10:00:22;;;;;;;84.00;12.20;;;-0.20;96.30;;;;;;4897025;29;20449;-75
2021/01/04 10:03:05;;;;;;;199.10;14.23;;;-0.20;96.30;;;;;;4897368;29;20393;-74
2021/01/04 10:05:37;;;;;;;215.83;13.50;;;-0.20;96.30;;;;;;4898159;29;20389;-75
2021/01/04 10:08:06;;;;;;;116.87;11.87;;;-0.20;96.30;;;;;;4881399;29;20898;-75
2021/01/04 10:10:32;;;;;;;145.73;14.27;;;-0.10;96.30;;;;;;4881283;29;20972;-73
2021/01/04 10:13:09;;;;;;;105.23;13.07;;;-0.10;96.30;;;;;;4886815;29;20418;-75
2021/01/04 10:15:36;;;;;;;159.23;13.47;;;-0.10;96.30;;;;;;4862046;29;20228;-75
2021/01/04 10:18:30;;;;;;;185.27;14.90;;;0.00;96.30;;;;;;4879283;29;20435;-75
2021/01/04 10:20:56;;;;;;;114.70;12.67;;;0.00;96.30;;;;;;4879238;29;20537;-75
2021/01/04 10:23:37;;;;;;;178.33;13.33;;;0.00;96.30;;;;;;4879239;29;20442;-75
2021/01/04 10:26:08;;;;;;;198.40;13.77;;;0.00;96.30;;;;;;4879082;29;20257;-75
2021/01/04 10:28:36;;;;;;;165.77;12.77;;;0.00;96.30;;;;;;4909979;29;20411;-74
2021/01/04 10:31:08;;;;;;;197.87;12.83;;;0.00;96.30;;;;;;4905916;29;20481;-74
2021/01/04 10:33:38;;;;;;;248.70;14.03;;;0.00;96.30;;;;;;4897734;29;20504;-74
2021/01/04 10:36:13;;;;;;;270.00;14.67;;;0.00;96.30;;;;;;4896887;29;20868;-74
2021/01/04 10:38:41;;;;;;;116.27;11.93;;;0.10;96.30;;;;;;4896164;29;20393;-74
2021/01/04 10:41:09;;;;;;;332.80;15.30;;;-0.10;96.30;;;;;;4897552;29;20501;-74
2021/01/04 10:43:36;;;;;;;339.10;14.97;;;-0.10;96.30;;;;;;4880810;29;20942;-74
2021/01/04 10:46:33;;;;;;;258.83;14.23;;;0.00;96.30;;;;;;4897618;29;20424;-74
2021/01/04 10:49:06;;;;;;;267.90;13.37;;;0.00;96.30;;;;;;4897665;29;20406;-75
2021/01/04 10:51:34;;;;;;;205.53;12.07;;;0.00;96.30;;;;;;4896929;29;20472;-75
2021/01/04 10:54:10;;;;;;;197.03;13.20;;;0.10;96.30;;;;;;4897442;29;20570;-74
2021/01/04 10:56:45;;;;;;;126.13;11.77;;;0.20;96.30;;;;;;4897510;29;20421;-74
2021/01/04 10:59:22;;;;;;;156.77;12.53;;;0.20;96.30;;;;;;4897226;29;20487;-75
2021/01/04 11:01:49;;;;;;;242.77;13.70;;;0.20;96.30;;;;;;4897169;29;20507;-74
2021/01/04 11:04:17;;;;;;;174.30;12.23;;;0.10;96.30;;;;;;4880272;29;20516;-75
2021/01/04 11:06:47;;;;;;;256.17;13.43;;;0.10;96.30;;;;;;4897336;29;20413;-75
2021/01/04 11:09:30;;;;;;;328.03;14.47;;;0.10;96.30;;;;;;4897218;29;20417;-75
2021/01/04 11:12:07;;;;;;;297.77;14.47;;;0.10;96.30;;;;;;4878500;29;20787;-74
2021/01/04 11:14:33;;;;;;;181.37;12.60;;;0.00;96.30;;;;;;4920714;23;20498;-80
2021/01/04 11:17:11;;;;;;;240.57;14.27;;;0.00;96.30;;;;;;4953004;29;20450;-80
2021/01/04 11:19:37;;;;;;;374.07;15.13;;;-0.10;96.30;;;;;;4954519;28;20476;-80
2021/01/04 11:22:17;;;;;;;143.63;12.80;;;-0.10;96.30;;;;;;4953018;29;20506;-78
2021/01/04 11:24:42;;;;;;;270.87;14.70;;;-0.10;96.30;;;;;;4954177;28;20430;-80
2021/01/04 11:27:08;;;;;;;121.30;11.90;;;-0.10;96.30;;;;;;4954263;29;20922;-80
2021/01/04 11:29:38;;;;;;;113.03;11.10;;;-0.10;96.30;;;;;;4954247;28;20559;-79
2021/01/04 11:32:04;;;;;;;59.03;10.67;;;-0.10;96.30;;;;;;4954150;28;20430;-79
2021/01/04 11:34:30;;;;;;;141.63;11.57;;;-0.10;96.30;;;;;;4954010;28;20533;-79
2021/01/04 11:36:55;;;;;;;240.07;12.37;;;-0.10;96.30;;;;;;4954569;29;20438;-79
2021/01/04 11:39:22;;;;;;;202.37;13.57;;;-0.10;96.30;;;;;;4954299;29;20673;-80
2021/01/04 11:41:47;;;;;;;140.63;11.53;;;-0.10;96.30;;;;;;4954354;28;20174;-80
2021/01/04 11:44:13;;;;;;;254.60;14.50;;;-0.10;96.30;;;;;;4950125;28;20443;-80
2021/01/04 11:46:38;;;;;;;145.20;13.43;;;-0.10;96.30;;;;;;4951492;29;20168;-79
2021/01/04 11:49:04;;;;;;;167.03;13.60;;;0.00;96.30;;;;;;4935706;29;20175;-79
2021/01/04 11:51:30;;;;;;;161.63;12.63;;;0.00;96.30;;;;;;4934942;29;20659;-80
2021/01/04 11:53:55;;;;;;;230.17;14.00;;;0.00;96.30;;;;;;4951763;28;20187;-79
2021/01/04 11:56:22;;;;;;;280.00;13.63;;;0.00;96.30;;;;;;4953605;28;20235;-81
2021/01/04 11:58:49;;;;;;;46.57;11.50;;;0.00;96.30;;;;;;4954617;28;20627;-80
2021/01/04 12:01:17;;;;;;;57.40;13.13;;;0.00;96.30;;;;;;4954193;29;20419;-80
2021/01/04 12:03:44;;;;;;;38.80;11.97;;;0.00;96.30;;;;;;4955285;28;20422;-79
2021/01/04 12:06:10;;;;;;;84.23;13.63;;;0.00;96.30;;;;;;4956177;29;20449;-79
2021/01/04 12:08:36;;;;;;;116.60;13.07;;;0.10;96.30;;;;;;4969593;28;20476;-79
2021/01/04 12:11:02;;;;;;;159.20;14.00;;;0.00;96.30;;;;;;4971089;28;20434;-79
2021/01/04 12:13:28;;;;;;;59.40;13.70;;;0.00;96.30;;;;;;4957302;29;20414;-80
2021/01/04 12:15:53;;;;;;;79.40;13.30;;;0.00;96.30;;;;;;4957187;28;20202;-79
2021/01/04 12:18:19;;;;;;;82.07;13.60;;;0.10;96.30;;;;;;4957806;29;20635;-79
2021/01/04 12:20:46;;;;;;;103.83;14.23;;;0.10;96.30;;;;;;4956587;29;20559;-80
2021/01/04 12:23:11;;;;;;;144.60;14.27;;;0.00;96.30;;;;;;4957533;28;20469;-80
2021/01/04 12:25:37;;;;;;;178.97;14.17;;;0.00;96.30;;;;;;4958106;28;20501;-80
2021/01/04 12:28:02;;;;;;;95.87;13.70;;;-0.10;96.30;;;;;;4956670;29;20647;-80
2021/01/04 12:30:28;;;;;;;74.93;13.97;;;0.00;96.30;;;;;;4956050;29;20190;-79
2021/01/04 12:32:54;;;;;;;142.27;13.27;;;0.00;96.30;;;;;;4946933;28;20256;-79
2021/01/04 12:35:21;;;;;;;190.30;15.40;;;0.00;96.30;;;;;;4956679;28;20199;-79
2021/01/04 12:37:47;;;;;;;185.67;13.97;;;0.00;96.30;;;;;;4955734;29;20438;-81
2021/01/04 12:40:16;;;;;;;101.57;12.57;;;0.00;96.30;;;;;;4955582;29;20480;-80
2021/01/04 12:42:41;;;;;;;92.93;13.50;;;0.00;96.30;;;;;;4954001;29;20270;-79
2021/01/04 12:45:08;;;;;;;62.00;13.07;;;0.00;96.30;;;;;;4954341;28;20509;-81
2021/01/04 12:47:34;;;;;;;105.20;12.97;;;-0.10;96.30;;;;;;4956389;28;21020;-80
2021/01/04 12:50:00;;;;;;;242.23;15.37;;;-0.10;96.30;;;;;;4957492;28;20762;-80
2021/01/04 12:52:25;;;;;;;208.63;14.47;;;-0.10;96.30;;;;;;4956472;29;20430;-80
2021/01/04 12:54:51;;;;;;;138.10;13.00;;;0.00;96.30;;;;;;4956010;29;20210;-81
2021/01/04 12:57:18;;;;;;;153.70;12.73;;;0.00;96.30;;;;;;4956102;29;20195;-79
2021/01/04 12:59:43;;;;;;;99.97;12.17;;;0.00;96.30;;;;;;4957299;28;20229;-82
2021/01/04 13:02:11;;;;;;;142.30;14.00;;;0.00;96.30;;;;;;4958743;28;20411;-81
2021/01/04 13:04:41;;;;;;;149.23;12.70;;;0.00;96.30;;;;;;4957942;29;20211;-81
2021/01/04 13:07:07;;;;;;;158.87;14.80;;;0.10;96.30;;;;;;4958101;29;20902;-81
2021/01/04 13:09:33;;;;;;;115.77;14.20;;;0.10;96.30;;;;;;4957928;29;20434;-80
2021/01/04 13:12:00;;;;;;;236.47;16.50;;;0.00;96.30;;;;;;4958297;29;20810;-81
2021/01/04 13:14:25;;;;;;;183.13;14.20;;;0.00;96.30;;;;;;4957219;28;20218;-81
2021/01/04 13:16:51;;;;;;;291.57;14.40;;;0.00;96.30;;;;;;4959746;29;20423;-81
2021/01/04 13:19:17;;;;;;;343.90;16.80;;;0.00;96.30;;;;;;4958054;29;20597;-81
2021/01/04 13:21:43;;;;;;;221.63;13.93;;;0.00;96.30;;;;;;4958251;29;20226;-81
2021/01/04 13:24:12;;;;;;;140.00;15.30;;;0.00;96.30;;;;;;4959085;28;20494;-82
2021/01/04 13:26:40;;;;;;;370.13;17.60;;;-0.10;96.30;;;;;;4958289;29;20202;-81
2021/01/04 13:29:06;;;;;;;214.90;14.90;;;-0.10;96.30;;;;;;4969977;29;20489;-83
2021/01/04 13:31:32;;;;;;;117.40;13.10;;;-0.10;96.30;;;;;;4970224;29;20438;-83
2021/01/04 13:33:57;;;;;;;196.67;14.83;;;0.00;96.30;;;;;;4958893;29;20430;-82
2021/01/04 13:36:23;;;;;;;171.93;14.90;;;0.00;96.30;;;;;;4956602;29;20198;-82
2021/01/04 13:38:48;;;;;;;261.73;16.33;;;-0.10;96.30;;;;;;4958212;29;20179;-81
2021/01/04 13:41:15;;;;;;;68.83;12.23;;;-0.10;96.30;;;;;;4958893;29;20171;-82
2021/01/04 13:43:44;;;;;;;230.20;15.90;;;-0.10;96.30;;;;;;4957330;29;20678;-81
2021/01/04 13:46:09;;;;;;;243.90;16.03;;;-0.10;96.30;;;;;;4950491;29;20436;-82
2021/01/04 13:48:35;;;;;;;129.43;14.20;;;-0.20;96.30;;;;;;4957361;28;20562;-84
2021/01/04 13:51:01;;;;;;;113.63;13.40;;;-0.20;96.30;;;;;;4957610;28;20179;-82
2021/01/04 13:53:26;;;;;;;197.80;14.30;;;-0.20;96.30;;;;;;4957722;29;20941;-81
2021/01/04 13:55:53;;;;;;;203.63;15.37;;;-0.20;96.30;;;;;;4957063;29;20282;-82
2021/01/04 13:58:18;;;;;;;278.30;16.83;;;-0.30;96.30;;;;;;4955926;28;20189;-81
2021/01/04 14:00:44;;;;;;;405.27;17.67;;;-0.20;96.30;;;;;;4957206;29;20446;-81
2021/01/04 14:03:09;;;;;;;284.80;16.27;;;-0.20;96.30;;;;;;4936467;29;20171;-80
2021/01/04 14:05:35;;;;;;;241.67;16.20;;;-0.30;96.30;;;;;;4937153;29;20188;-80
2021/01/04 14:08:00;;;;;;;151.83;12.87;;;-0.20;96.30;;;;;;4936617;29;20651;-80
2021/01/04 14:10:25;;;;;;;147.80;13.97;;;-0.30;96.30;;;;;;4936250;29;20179;-82
2021/01/04 14:12:51;;;;;;;139.37;14.23;;;-0.30;96.30;;;;;;4940305;29;20277;-80
2021/01/04 14:15:17;;;;;;;298.30;16.10;;;-0.30;96.30;;;;;;4950313;29;20345;-80
2021/01/04 14:17:43;;;;;;;410.37;17.87;;;-0.30;96.30;;;;;;4951461;29;20308;-82
2021/01/04 14:20:09;;;;;;;186.47;14.13;;;-0.40;96.30;;;;;;4952066;28;20206;-82
2021/01/04 14:22:35;;;;;;;340.47;16.47;;;-0.40;96.30;;;;;;4956181;28;20190;-80
2021/01/04 14:25:02;;;;;;;448.37;19.67;;;-0.30;96.30;;;;;;4949541;28;20459;-81
2021/01/04 14:27:28;;;;;;;333.97;17.40;;;-0.40;96.30;;;;;;4943757;28;20934;-80
2021/01/04 14:29:53;;;;;;;88.83;13.90;;;-0.40;96.30;;;;;;4953228;29;20430;-82
2021/01/04 14:32:20;;;;;;;248.57;15.43;;;-0.40;96.30;;;;;;4958998;28;20186;-83
2021/01/04 14:34:46;;;;;;;229.00;14.97;;;-0.40;96.30;;;;;;4940645;29;20198;-81
2021/01/04 14:37:12;;;;;;;131.87;13.80;;;-0.50;96.30;;;;;;4945221;28;20411;-81
2021/01/04 14:39:37;;;;;;;431.07;20.10;;;-0.50;96.30;;;;;;4954334;28;20222;-83
2021/01/04 14:42:08;;;;;;;246.77;17.73;;;-0.50;96.30;;;;;;4955784;28;20629;-84
2021/01/04 14:44:35;;;;;;;129.60;14.17;;;-0.50;96.30;;;;;;4951736;28;20295;-82
2021/01/04 14:47:05;;;;;;;342.37;18.50;;;-0.50;96.30;;;;;;4939669;29;20506;-82
2021/01/04 14:49:31;;;;;;;268.83;16.20;;;-0.50;96.30;;;;;;4941924;28;20430;-81
2021/01/04 14:51:57;;;;;;;330.40;16.27;;;-0.50;96.30;;;;;;4955013;28;20426;-81
2021/01/04 14:54:27;;;;;;;388.87;17.67;;;-0.50;96.30;;;;;;4945759;28;20439;-82
2021/01/04 14:56:53;;;;;;;375.90;18.80;;;-0.50;96.30;;;;;;4953929;28;20195;-82
2021/01/04 14:59:18;;;;;;;458.07;20.67;;;-0.50;96.30;;;;;;4954443;29;20940;-80
2021/01/04 15:01:44;;;;;;;232.83;15.10;;;-0.50;96.30;;;;;;4951145;29;20186;-81
2021/01/04 15:04:10;;;;;;;305.37;16.20;;;-0.50;96.30;;;;;;4948670;29;20558;-81
2021/01/04 15:06:36;;;;;;;357.83;17.17;;;-0.50;96.30;;;;;;4952084;29;20273;-81
2021/01/04 15:09:03;;;;;;;349.73;17.57;;;-0.60;96.30;;;;;;4952272;28;20517;-81
2021/01/04 15:11:28;;;;;;;270.87;15.70;;;-0.60;96.30;;;;;;4955814;28;20514;-82
2021/01/04 15:13:54;;;;;;;442.90;18.83;;;-0.60;96.30;;;;;;4953492;29;20509;-82
2021/01/04 15:16:20;;;;;;;296.20;16.40;;;-0.50;96.30;;;;;;4949590;29;20213;-81
2021/01/04 15:18:46;;;;;;;314.77;16.47;;;-0.60;96.30;;;;;;4946408;29;20214;-81
2021/01/04 15:21:19;;;;;;;384.13;17.67;;;-0.60;96.30;;;;;;4951718;29;20194;-82
2021/01/04 15:23:44;;;;;;;368.00;17.43;;;-0.60;96.30;;;;;;4955775;28;20473;-83
2021/01/04 15:26:10;;;;;;;442.17;18.90;;;-0.60;96.30;;;;;;4956304;29;20435;-82
2021/01/04 15:28:35;;;;;;;341.27;16.57;;;-0.70;96.30;;;;;;4950411;29;20176;-83
2021/01/04 15:31:01;;;;;;;441.53;20.43;;;-0.70;96.30;;;;;;4947997;29;20183;-82
2021/01/04 15:33:26;;;;;;;477.73;20.83;;;-0.70;96.30;;;;;;4944793;29;20247;-81
2021/01/04 15:35:52;;;;;;;476.17;20.20;;;-0.70;96.30;;;;;;4935485;29;20211;-80
2021/01/04 15:38:17;;;;;;;191.47;16.40;;;-0.70;96.30;;;;;;4949503;28;20246;-82
2021/01/04 15:40:43;;;;;;;406.47;21.03;;;-0.70;96.30;;;;;;4953047;29;20571;-83
2021/01/04 15:43:08;;;;;;;208.50;16.73;;;-0.70;96.30;;;;;;4960016;29;20186;-81
2021/01/04 15:45:34;;;;;;;373.67;19.10;;;-0.70;96.30;;;;;;4957372;28;20218;-82
2021/01/04 15:47:59;;;;;;;445.97;18.87;;;-0.70;96.30;;;;;;4960754;29;20241;-83
2021/01/04 15:50:25;;;;;;;437.30;18.87;;;-0.70;96.30;;;;;;4950301;29;20646;-81
2021/01/04 15:52:51;;;;;;;528.90;21.10;;;-0.70;96.30;;;;;;4952841;29;20182;-82
2021/01/04 15:55:17;;;;;;;508.93;20.50;;;-0.70;96.30;;;;;;4958518;29;20573;-82
2021/01/04 15:57:42;;;;;;;328.20;17.17;;;-0.70;96.30;;;;;;4958745;29;20422;-82
2021/01/04 16:00:09;;;;;;;287.20;16.10;;;-0.70;96.30;;;;;;4952080;29;20671;-82
2021/01/04 16:02:35;;;;;;;272.53;16.70;;;-0.70;96.30;;;;;;4946484;29;20183;-82
2021/01/04 16:05:01;;;;;;;221.63;16.13;;;-0.70;96.30;;;;;;4959016;28;20454;-81
2021/01/04 16:07:26;;;;;;;289.13;16.60;;;-0.70;96.30;;;;;;4958914;29;20425;-81
2021/01/04 16:09:52;;;;;;;244.07;18.27;;;-0.70;96.30;;;;;;4957109;29;20210;-82
2021/01/04 16:12:17;;;;;;;512.50;23.27;;;-0.70;96.30;;;;;;4959779;29;20183;-82
2021/01/04 16:14:43;;;;;;;595.10;22.20;;;-0.70;96.30;;;;;;4959532;28;20242;-82
2021/01/04 16:17:10;;;;;;;468.20;20.20;;;-0.70;96.30;;;;;;4959819;28;20557;-82
2021/01/04 16:19:36;;;;;;;458.33;17.70;;;-0.70;96.30;;;;;;4959672;28;20207;-82
2021/01/04 16:22:06;;;;;;;476.63;20.97;;;-0.70;96.30;;;;;;4958281;29;20797;-81
2021/01/04 16:24:33;;;;;;;335.43;18.87;;;-0.70;96.30;;;;;;4959968;28;20199;-82
2021/01/04 16:26:59;;;;;;;339.37;18.90;;;-0.80;96.30;;;;;;4959773;28;20430;-82
2021/01/04 16:29:25;;;;;;;401.03;22.27;;;-0.80;96.30;;;;;;4958393;29;20469;-81
2021/01/04 16:31:57;;;;;;;473.87;24.60;;;-0.80;96.30;;;;;;4945570;28;20427;-82
2021/01/04 16:34:25;;;;;;;360.43;22.90;;;-0.80;96.30;;;;;;4953513;28;20203;-81
2021/01/04 16:36:54;;;;;;;445.57;21.23;;;-0.70;96.30;;;;;;4949987;29;20439;-82
2021/01/04 16:39:21;;;;;;;639.07;22.17;;;-0.80;96.30;;;;;;4958333;29;20469;-82
2021/01/04 16:41:46;;;;;;;686.33;27.97;;;-0.70;96.30;;;;;;4954594;29;20427;-81
2021/01/04 16:44:12;;;;;;;562.90;21.30;;;-0.80;96.30;;;;;;4944632;29;20415;-82
2021/01/04 16:46:37;;;;;;;482.87;20.97;;;-0.70;96.30;;;;;;4958434;29;20653;-81
2021/01/04 16:49:04;;;;;;;542.50;26.03;;;-0.80;96.30;;;;;;4958813;28;20183;-82
2021/01/04 16:51:30;;;;;;;485.50;26.47;;;-0.80;96.30;;;;;;4956896;29;20257;-82
2021/01/04 16:53:57;;;;;;;481.80;26.17;;;-0.70;96.30;;;;;;4956284;29;20456;-82